sensor_id;sensor_type;location;lat;lon;timestamp;P1;durP1;ratioP1;P2;durP2;ratioP2
16199;SDS011;8207;52.494;4.654;2023-03-29T00:02:20;6.17;;;3.30;;
16199;SDS011;8207;52.494;4.654;2023-03-29T00:04:54;4.17;;;3.00;;
16199;SDS011;8207;52.494;4.654;2023-03-29T00:07:22;3.70;;;2.63;;
16199;SDS011;8207;52.494;4.654;2023-03-29T00:09:50;4.77;;;3.10;;
16199;SDS011;8207;52.494;4.654;2023-03-29T00:12:17;4.00;;;3.20;;
16199;SDS011;8207;52.494;4.654;2023-03-29T00:14:45;3.60;;;2.77;;
16199;SDS011;8207;52.494;4.654;2023-03-29T00:17:12;5.63;;;3.00;;
16199;SDS011;8207;52.494;4.654;2023-03-29T00:19:41;5.63;;;3.40;;
16199;SDS011;8207;52.494;4.654;2023-03-29T00:22:08;3.97;;;2.80;;
16199;SDS011;8207;52.494;4.654;2023-03-29T00:24:35;4.03;;;2.90;;
16199;SDS011;8207;52.494;4.654;2023-03-29T00:27:02;7.77;;;3.33;;
16199;SDS011;8207;52.494;4.654;2023-03-29T00:29:29;4.97;;;3.13;;
16199;SDS011;8207;52.494;4.654;2023-03-29T00:31:58;4.30;;;3.20;;
16199;SDS011;8207;52.494;4.654;2023-03-29T00:34:25;6.13;;;3.03;;
16199;SDS011;8207;52.494;4.654;2023-03-29T00:36:55;3.73;;;3.00;;
16199;SDS011;8207;52.494;4.654;2023-03-29T00:39:22;4.47;;;3.07;;
16199;SDS011;8207;52.494;4.654;2023-03-29T00:41:50;5.40;;;3.37;;
16199;SDS011;8207;52.494;4.654;2023-03-29T00:47:22;4.47;;;3.13;;
16199;SDS011;8207;52.494;4.654;2023-03-29T00:49:54;5.90;;;2.87;;
16199;SDS011;8207;52.494;4.654;2023-03-29T00:52:24;3.73;;;2.70;;
16199;SDS011;8207;52.494;4.654;2023-03-29T00:54:54;6.47;;;3.63;;
16199;SDS011;8207;52.494;4.654;2023-03-29T00:57:23;5.73;;;3.43;;
16199;SDS011;8207;52.494;4.654;2023-03-29T00:59:52;3.60;;;2.93;;
16199;SDS011;8207;52.494;4.654;2023-03-29T01:02:22;5.07;;;3.50;;
16199;SDS011;8207;52.494;4.654;2023-03-29T01:04:54;4.67;;;3.17;;
16199;SDS011;8207;52.494;4.654;2023-03-29T01:07:26;5.23;;;3.47;;
16199;SDS011;8207;52.494;4.654;2023-03-29T01:09:57;4.60;;;3.20;;
16199;SDS011;8207;52.494;4.654;2023-03-29T01:12:30;6.07;;;3.20;;
16199;SDS011;8207;52.494;4.654;2023-03-29T01:15:01;5.67;;;3.23;;
16199;SDS011;8207;52.494;4.654;2023-03-29T01:17:31;7.67;;;3.50;;
16199;SDS011;8207;52.494;4.654;2023-03-29T01:20:00;5.30;;;3.07;;
16199;SDS011;8207;52.494;4.654;2023-03-29T01:22:38;5.87;;;3.10;;
16199;SDS011;8207;52.494;4.654;2023-03-29T01:25:17;3.67;;;2.80;;
16199;SDS011;8207;52.494;4.654;2023-03-29T01:27:52;5.13;;;3.20;;
16199;SDS011;8207;52.494;4.654;2023-03-29T01:30:22;5.73;;;3.27;;
16199;SDS011;8207;52.494;4.654;2023-03-29T01:32:54;4.97;;;3.40;;
16199;SDS011;8207;52.494;4.654;2023-03-29T01:35:26;5.87;;;3.90;;
16199;SDS011;8207;52.494;4.654;2023-03-29T01:38:00;6.57;;;4.03;;
16199;SDS011;8207;52.494;4.654;2023-03-29T01:40:32;5.97;;;3.47;;
16199;SDS011;8207;52.494;4.654;2023-03-29T01:43:03;3.87;;;2.97;;
16199;SDS011;8207;52.494;4.654;2023-03-29T01:45:39;5.07;;;3.60;;
16199;SDS011;8207;52.494;4.654;2023-03-29T01:48:13;5.90;;;3.77;;
16199;SDS011;8207;52.494;4.654;2023-03-29T01:50:46;5.00;;;3.60;;
16199;SDS011;8207;52.494;4.654;2023-03-29T01:53:15;6.60;;;4.13;;
16199;SDS011;8207;52.494;4.654;2023-03-29T01:55:49;4.30;;;3.50;;
16199;SDS011;8207;52.494;4.654;2023-03-29T01:58:20;5.83;;;3.50;;
16199;SDS011;8207;52.494;4.654;2023-03-29T02:00:49;4.17;;;3.53;;
16199;SDS011;8207;52.494;4.654;2023-03-29T02:03:19;6.73;;;4.17;;
16199;SDS011;8207;52.494;4.654;2023-03-29T02:05:50;6.80;;;4.13;;
16199;SDS011;8207;52.494;4.654;2023-03-29T02:08:18;8.70;;;4.90;;
16199;SDS011;8207;52.494;4.654;2023-03-29T02:10:47;7.47;;;3.73;;
16199;SDS011;8207;52.494;4.654;2023-03-29T02:13:16;5.83;;;4.13;;
16199;SDS011;8207;52.494;4.654;2023-03-29T02:15:44;5.60;;;4.27;;
16199;SDS011;8207;52.494;4.654;2023-03-29T02:18:12;6.17;;;3.73;;
16199;SDS011;8207;52.494;4.654;2023-03-29T02:20:41;7.67;;;3.77;;
16199;SDS011;8207;52.494;4.654;2023-03-29T02:23:12;8.13;;;4.23;;
16199;SDS011;8207;52.494;4.654;2023-03-29T02:25:42;5.67;;;4.37;;
16199;SDS011;8207;52.494;4.654;2023-03-29T02:28:11;6.43;;;3.97;;
16199;SDS011;8207;52.494;4.654;2023-03-29T02:30:40;8.23;;;4.80;;
16199;SDS011;8207;52.494;4.654;2023-03-29T02:33:17;5.90;;;4.67;;
16199;SDS011;8207;52.494;4.654;2023-03-29T02:35:50;5.03;;;3.77;;
16199;SDS011;8207;52.494;4.654;2023-03-29T02:38:20;7.33;;;4.47;;
16199;SDS011;8207;52.494;4.654;2023-03-29T02:40:51;7.97;;;5.40;;
16199;SDS011;8207;52.494;4.654;2023-03-29T02:43:20;5.77;;;4.43;;
16199;SDS011;8207;52.494;4.654;2023-03-29T02:45:51;10.00;;;4.87;;
16199;SDS011;8207;52.494;4.654;2023-03-29T02:48:19;5.17;;;4.10;;
16199;SDS011;8207;52.494;4.654;2023-03-29T02:50:49;5.37;;;4.27;;
16199;SDS011;8207;52.494;4.654;2023-03-29T02:53:21;6.03;;;4.07;;
16199;SDS011;8207;52.494;4.654;2023-03-29T02:55:51;7.53;;;4.60;;
16199;SDS011;8207;52.494;4.654;2023-03-29T02:58:18;7.57;;;4.83;;
16199;SDS011;8207;52.494;4.654;2023-03-29T03:00:51;5.77;;;4.70;;
16199;SDS011;8207;52.494;4.654;2023-03-29T03:03:19;7.17;;;4.40;;
16199;SDS011;8207;52.494;4.654;2023-03-29T03:05:46;6.47;;;3.97;;
16199;SDS011;8207;52.494;4.654;2023-03-29T03:08:13;5.97;;;4.43;;
16199;SDS011;8207;52.494;4.654;2023-03-29T03:10:40;5.87;;;4.53;;
16199;SDS011;8207;52.494;4.654;2023-03-29T03:13:07;5.37;;;4.20;;
16199;SDS011;8207;52.494;4.654;2023-03-29T03:15:34;7.17;;;4.87;;
16199;SDS011;8207;52.494;4.654;2023-03-29T03:18:02;8.17;;;4.80;;
16199;SDS011;8207;52.494;4.654;2023-03-29T03:20:30;5.27;;;4.23;;
16199;SDS011;8207;52.494;4.654;2023-03-29T03:22:57;7.17;;;5.03;;
16199;SDS011;8207;52.494;4.654;2023-03-29T03:25:25;8.17;;;5.47;;
16199;SDS011;8207;52.494;4.654;2023-03-29T03:27:52;9.73;;;5.17;;
16199;SDS011;8207;52.494;4.654;2023-03-29T03:30:19;7.37;;;5.03;;
16199;SDS011;8207;52.494;4.654;2023-03-29T03:32:47;6.67;;;5.10;;
16199;SDS011;8207;52.494;4.654;2023-03-29T03:35:15;9.10;;;4.53;;
16199;SDS011;8207;52.494;4.654;2023-03-29T03:37:43;9.23;;;5.77;;
16199;SDS011;8207;52.494;4.654;2023-03-29T03:40:10;8.67;;;4.80;;
16199;SDS011;8207;52.494;4.654;2023-03-29T03:42:38;10.50;;;5.03;;
16199;SDS011;8207;52.494;4.654;2023-03-29T03:45:05;7.37;;;5.10;;
16199;SDS011;8207;52.494;4.654;2023-03-29T03:47:33;9.53;;;6.17;;
16199;SDS011;8207;52.494;4.654;2023-03-29T03:50:01;9.53;;;5.93;;
16199;SDS011;8207;52.494;4.654;2023-03-29T03:52:30;8.77;;;5.20;;
16199;SDS011;8207;52.494;4.654;2023-03-29T03:54:57;7.20;;;5.00;;
16199;SDS011;8207;52.494;4.654;2023-03-29T03:57:23;7.63;;;5.10;;
16199;SDS011;8207;52.494;4.654;2023-03-29T03:59:50;8.53;;;5.87;;
16199;SDS011;8207;52.494;4.654;2023-03-29T04:02:17;8.73;;;5.77;;
16199;SDS011;8207;52.494;4.654;2023-03-29T04:04:44;7.83;;;4.90;;
16199;SDS011;8207;52.494;4.654;2023-03-29T04:07:11;8.17;;;5.23;;
16199;SDS011;8207;52.494;4.654;2023-03-29T04:09:39;7.20;;;4.63;;
16199;SDS011;8207;52.494;4.654;2023-03-29T04:12:08;8.67;;;5.40;;
16199;SDS011;8207;52.494;4.654;2023-03-29T04:14:35;7.90;;;4.87;;
16199;SDS011;8207;52.494;4.654;2023-03-29T04:17:02;9.77;;;5.77;;
16199;SDS011;8207;52.494;4.654;2023-03-29T04:19:29;7.57;;;5.73;;
16199;SDS011;8207;52.494;4.654;2023-03-29T04:21:56;9.87;;;5.73;;
16199;SDS011;8207;52.494;4.654;2023-03-29T04:24:23;7.00;;;5.20;;
16199;SDS011;8207;52.494;4.654;2023-03-29T04:26:51;6.67;;;5.03;;
16199;SDS011;8207;52.494;4.654;2023-03-29T04:29:18;12.50;;;5.27;;
16199;SDS011;8207;52.494;4.654;2023-03-29T04:31:45;12.33;;;5.27;;
16199;SDS011;8207;52.494;4.654;2023-03-29T04:34:12;7.43;;;5.73;;
16199;SDS011;8207;52.494;4.654;2023-03-29T04:36:39;6.13;;;4.80;;
16199;SDS011;8207;52.494;4.654;2023-03-29T04:39:06;8.83;;;5.30;;
16199;SDS011;8207;52.494;4.654;2023-03-29T04:41:33;7.17;;;5.10;;
16199;SDS011;8207;52.494;4.654;2023-03-29T04:44:01;9.57;;;5.00;;
16199;SDS011;8207;52.494;4.654;2023-03-29T04:46:28;8.07;;;5.10;;
16199;SDS011;8207;52.494;4.654;2023-03-29T04:48:56;8.80;;;5.03;;
16199;SDS011;8207;52.494;4.654;2023-03-29T04:51:23;8.57;;;5.27;;
16199;SDS011;8207;52.494;4.654;2023-03-29T04:53:49;6.23;;;4.80;;
16199;SDS011;8207;52.494;4.654;2023-03-29T04:56:16;6.97;;;4.93;;
16199;SDS011;8207;52.494;4.654;2023-03-29T04:58:43;7.17;;;5.57;;
16199;SDS011;8207;52.494;4.654;2023-03-29T05:01:12;9.30;;;5.30;;
16199;SDS011;8207;52.494;4.654;2023-03-29T05:03:38;9.57;;;5.83;;
16199;SDS011;8207;52.494;4.654;2023-03-29T05:06:06;7.27;;;5.23;;
16199;SDS011;8207;52.494;4.654;2023-03-29T05:08:36;8.23;;;5.33;;
16199;SDS011;8207;52.494;4.654;2023-03-29T05:11:05;8.63;;;5.87;;
16199;SDS011;8207;52.494;4.654;2023-03-29T05:13:32;11.50;;;6.63;;
16199;SDS011;8207;52.494;4.654;2023-03-29T05:16:00;9.03;;;5.77;;
16199;SDS011;8207;52.494;4.654;2023-03-29T05:18:29;11.30;;;5.87;;
16199;SDS011;8207;52.494;4.654;2023-03-29T05:20:57;12.03;;;6.20;;
16199;SDS011;8207;52.494;4.654;2023-03-29T05:23:24;9.43;;;6.33;;
16199;SDS011;8207;52.494;4.654;2023-03-29T05:25:51;9.57;;;5.83;;
16199;SDS011;8207;52.494;4.654;2023-03-29T05:28:18;12.27;;;6.20;;
16199;SDS011;8207;52.494;4.654;2023-03-29T05:30:46;10.53;;;6.30;;
16199;SDS011;8207;52.494;4.654;2023-03-29T05:33:13;8.00;;;6.00;;
16199;SDS011;8207;52.494;4.654;2023-03-29T05:35:41;9.23;;;5.90;;
16199;SDS011;8207;52.494;4.654;2023-03-29T05:38:08;9.40;;;5.60;;
16199;SDS011;8207;52.494;4.654;2023-03-29T05:40:35;11.17;;;6.33;;
16199;SDS011;8207;52.494;4.654;2023-03-29T05:43:02;11.43;;;8.27;;
16199;SDS011;8207;52.494;4.654;2023-03-29T05:45:29;12.27;;;7.60;;
16199;SDS011;8207;52.494;4.654;2023-03-29T05:47:57;12.43;;;8.30;;
16199;SDS011;8207;52.494;4.654;2023-03-29T05:50:24;12.77;;;7.30;;
16199;SDS011;8207;52.494;4.654;2023-03-29T05:52:52;13.37;;;6.70;;
16199;SDS011;8207;52.494;4.654;2023-03-29T05:55:19;11.20;;;6.40;;
16199;SDS011;8207;52.494;4.654;2023-03-29T05:57:46;9.13;;;6.80;;
16199;SDS011;8207;52.494;4.654;2023-03-29T06:00:14;13.00;;;6.00;;
16199;SDS011;8207;52.494;4.654;2023-03-29T06:02:47;10.57;;;6.07;;
16199;SDS011;8207;52.494;4.654;2023-03-29T06:05:15;11.33;;;6.50;;
16199;SDS011;8207;52.494;4.654;2023-03-29T06:07:41;11.57;;;5.80;;
16199;SDS011;8207;52.494;4.654;2023-03-29T06:10:10;9.17;;;5.87;;
16199;SDS011;8207;52.494;4.654;2023-03-29T06:12:38;11.40;;;5.73;;
16199;SDS011;8207;52.494;4.654;2023-03-29T06:15:05;10.17;;;6.60;;
16199;SDS011;8207;52.494;4.654;2023-03-29T06:17:33;15.63;;;6.70;;
16199;SDS011;8207;52.494;4.654;2023-03-29T06:20:00;12.27;;;6.73;;
16199;SDS011;8207;52.494;4.654;2023-03-29T06:22:28;14.27;;;7.37;;
16199;SDS011;8207;52.494;4.654;2023-03-29T06:24:55;18.33;;;8.23;;
16199;SDS011;8207;52.494;4.654;2023-03-29T06:27:24;11.50;;;6.57;;
16199;SDS011;8207;52.494;4.654;2023-03-29T06:29:51;10.50;;;6.63;;
16199;SDS011;8207;52.494;4.654;2023-03-29T06:32:18;11.30;;;6.07;;
16199;SDS011;8207;52.494;4.654;2023-03-29T06:34:45;12.50;;;6.93;;
16199;SDS011;8207;52.494;4.654;2023-03-29T06:37:11;14.57;;;6.40;;
16199;SDS011;8207;52.494;4.654;2023-03-29T06:39:38;14.60;;;7.97;;
16199;SDS011;8207;52.494;4.654;2023-03-29T06:42:06;15.57;;;6.90;;
16199;SDS011;8207;52.494;4.654;2023-03-29T06:44:34;11.00;;;6.90;;
16199;SDS011;8207;52.494;4.654;2023-03-29T06:47:02;12.50;;;7.13;;
16199;SDS011;8207;52.494;4.654;2023-03-29T06:49:29;19.27;;;7.10;;
16199;SDS011;8207;52.494;4.654;2023-03-29T06:51:55;11.27;;;6.23;;
16199;SDS011;8207;52.494;4.654;2023-03-29T06:54:24;12.47;;;6.23;;
16199;SDS011;8207;52.494;4.654;2023-03-29T06:56:51;14.03;;;6.53;;
16199;SDS011;8207;52.494;4.654;2023-03-29T06:59:18;19.67;;;7.40;;
16199;SDS011;8207;52.494;4.654;2023-03-29T07:01:46;15.73;;;7.40;;
16199;SDS011;8207;52.494;4.654;2023-03-29T07:04:13;13.83;;;7.43;;
16199;SDS011;8207;52.494;4.654;2023-03-29T07:06:41;16.87;;;7.07;;
16199;SDS011;8207;52.494;4.654;2023-03-29T07:09:12;12.87;;;7.47;;
16199;SDS011;8207;52.494;4.654;2023-03-29T07:11:40;15.50;;;8.17;;
16199;SDS011;8207;52.494;4.654;2023-03-29T07:14:08;14.53;;;7.53;;
16199;SDS011;8207;52.494;4.654;2023-03-29T07:16:35;17.17;;;8.40;;
16199;SDS011;8207;52.494;4.654;2023-03-29T07:19:04;17.13;;;8.37;;
16199;SDS011;8207;52.494;4.654;2023-03-29T07:21:33;19.70;;;8.97;;
16199;SDS011;8207;52.494;4.654;2023-03-29T07:23:59;16.50;;;8.80;;
16199;SDS011;8207;52.494;4.654;2023-03-29T07:26:28;15.30;;;8.63;;
16199;SDS011;8207;52.494;4.654;2023-03-29T07:28:56;22.13;;;10.07;;
16199;SDS011;8207;52.494;4.654;2023-03-29T07:31:25;22.97;;;10.60;;
16199;SDS011;8207;52.494;4.654;2023-03-29T07:33:53;17.00;;;9.57;;
16199;SDS011;8207;52.494;4.654;2023-03-29T07:36:21;15.40;;;8.67;;
16199;SDS011;8207;52.494;4.654;2023-03-29T07:38:48;23.23;;;9.97;;
16199;SDS011;8207;52.494;4.654;2023-03-29T07:41:15;23.70;;;10.60;;
16199;SDS011;8207;52.494;4.654;2023-03-29T07:43:42;24.40;;;11.00;;
16199;SDS011;8207;52.494;4.654;2023-03-29T07:46:09;25.13;;;12.00;;
16199;SDS011;8207;52.494;4.654;2023-03-29T07:48:36;28.47;;;11.60;;
16199;SDS011;8207;52.494;4.654;2023-03-29T07:51:03;29.07;;;12.73;;
16199;SDS011;8207;52.494;4.654;2023-03-29T07:53:32;21.43;;;11.07;;
16199;SDS011;8207;52.494;4.654;2023-03-29T07:55:59;27.93;;;12.47;;
16199;SDS011;8207;52.494;4.654;2023-03-29T07:58:26;25.30;;;11.40;;
16199;SDS011;8207;52.494;4.654;2023-03-29T08:00:54;32.20;;;14.30;;
16199;SDS011;8207;52.494;4.654;2023-03-29T08:03:21;27.20;;;12.67;;
16199;SDS011;8207;52.494;4.654;2023-03-29T08:05:48;30.37;;;13.40;;
16199;SDS011;8207;52.494;4.654;2023-03-29T08:08:15;26.67;;;13.70;;
16199;SDS011;8207;52.494;4.654;2023-03-29T08:10:44;30.90;;;13.47;;
16199;SDS011;8207;52.494;4.654;2023-03-29T08:13:11;28.40;;;13.67;;
16199;SDS011;8207;52.494;4.654;2023-03-29T08:15:38;30.20;;;13.70;;
16199;SDS011;8207;52.494;4.654;2023-03-29T08:18:10;32.03;;;12.87;;
16199;SDS011;8207;52.494;4.654;2023-03-29T08:20:36;28.73;;;12.23;;
16199;SDS011;8207;52.494;4.654;2023-03-29T08:23:04;29.33;;;12.97;;
16199;SDS011;8207;52.494;4.654;2023-03-29T08:25:30;28.73;;;13.87;;
16199;SDS011;8207;52.494;4.654;2023-03-29T08:28:00;23.60;;;13.77;;
16199;SDS011;8207;52.494;4.654;2023-03-29T08:30:27;25.10;;;14.73;;
16199;SDS011;8207;52.494;4.654;2023-03-29T08:32:54;28.70;;;12.93;;
16199;SDS011;8207;52.494;4.654;2023-03-29T08:35:21;30.53;;;14.13;;
16199;SDS011;8207;52.494;4.654;2023-03-29T08:37:48;23.70;;;13.20;;
16199;SDS011;8207;52.494;4.654;2023-03-29T08:40:15;26.40;;;13.03;;
16199;SDS011;8207;52.494;4.654;2023-03-29T08:42:50;23.37;;;13.73;;
16199;SDS011;8207;52.494;4.654;2023-03-29T08:45:40;26.00;;;14.70;;
16199;SDS011;8207;52.494;4.654;2023-03-29T08:48:16;26.17;;;14.47;;
16199;SDS011;8207;52.494;4.654;2023-03-29T08:50:49;31.30;;;15.10;;
16199;SDS011;8207;52.494;4.654;2023-03-29T08:53:18;23.83;;;14.43;;
16199;SDS011;8207;52.494;4.654;2023-03-29T08:55:50;31.30;;;15.17;;
16199;SDS011;8207;52.494;4.654;2023-03-29T08:58:21;27.63;;;15.43;;
16199;SDS011;8207;52.494;4.654;2023-03-29T09:00:53;29.60;;;16.23;;
16199;SDS011;8207;52.494;4.654;2023-03-29T09:03:23;30.40;;;16.27;;
16199;SDS011;8207;52.494;4.654;2023-03-29T09:05:52;28.27;;;15.13;;
16199;SDS011;8207;52.494;4.654;2023-03-29T09:08:22;30.90;;;15.30;;
16199;SDS011;8207;52.494;4.654;2023-03-29T09:10:54;34.77;;;15.20;;
16199;SDS011;8207;52.494;4.654;2023-03-29T09:13:33;37.03;;;15.77;;
16199;SDS011;8207;52.494;4.654;2023-03-29T09:16:12;27.00;;;14.43;;
16199;SDS011;8207;52.494;4.654;2023-03-29T09:18:51;30.63;;;17.10;;
16199;SDS011;8207;52.494;4.654;2023-03-29T09:21:29;32.40;;;16.30;;
16199;SDS011;8207;52.494;4.654;2023-03-29T09:26:55;27.13;;;16.50;;
16199;SDS011;8207;52.494;4.654;2023-03-29T09:29:31;34.80;;;17.03;;
16199;SDS011;8207;52.494;4.654;2023-03-29T09:32:13;36.70;;;17.53;;
16199;SDS011;8207;52.494;4.654;2023-03-29T09:34:47;35.97;;;17.93;;
16199;SDS011;8207;52.494;4.654;2023-03-29T09:37:22;28.90;;;16.33;;
16199;SDS011;8207;52.494;4.654;2023-03-29T09:39:53;32.00;;;17.37;;
16199;SDS011;8207;52.494;4.654;2023-03-29T09:42:21;29.40;;;16.20;;
16199;SDS011;8207;52.494;4.654;2023-03-29T09:44:51;26.90;;;17.20;;
16199;SDS011;8207;52.494;4.654;2023-03-29T09:47:24;29.80;;;18.07;;
16199;SDS011;8207;52.494;4.654;2023-03-29T09:49:55;24.77;;;16.53;;
16199;SDS011;8207;52.494;4.654;2023-03-29T09:52:24;24.17;;;16.43;;
16199;SDS011;8207;52.494;4.654;2023-03-29T09:54:51;31.67;;;17.23;;
16199;SDS011;8207;52.494;4.654;2023-03-29T09:57:18;23.40;;;15.77;;
16199;SDS011;8207;52.494;4.654;2023-03-29T09:59:46;21.30;;;15.13;;
16199;SDS011;8207;52.494;4.654;2023-03-29T10:02:16;25.90;;;15.33;;
16199;SDS011;8207;52.494;4.654;2023-03-29T10:04:50;25.40;;;15.87;;
16199;SDS011;8207;52.494;4.654;2023-03-29T10:07:19;29.57;;;17.27;;
16199;SDS011;8207;52.494;4.654;2023-03-29T10:09:47;25.90;;;15.77;;
16199;SDS011;8207;52.494;4.654;2023-03-29T10:12:16;27.53;;;17.03;;
16199;SDS011;8207;52.494;4.654;2023-03-29T10:14:46;26.80;;;17.60;;
16199;SDS011;8207;52.494;4.654;2023-03-29T10:17:18;28.90;;;17.67;;
16199;SDS011;8207;52.494;4.654;2023-03-29T10:19:48;26.13;;;15.30;;
16199;SDS011;8207;52.494;4.654;2023-03-29T10:22:17;21.83;;;14.87;;
16199;SDS011;8207;52.494;4.654;2023-03-29T10:24:48;24.73;;;15.20;;
16199;SDS011;8207;52.494;4.654;2023-03-29T10:27:17;25.07;;;14.73;;
16199;SDS011;8207;52.494;4.654;2023-03-29T10:29:47;23.87;;;15.37;;
16199;SDS011;8207;52.494;4.654;2023-03-29T10:32:16;25.27;;;16.57;;
16199;SDS011;8207;52.494;4.654;2023-03-29T10:35:01;24.80;;;16.20;;
16199;SDS011;8207;52.494;4.654;2023-03-29T10:37:33;24.27;;;15.40;;
16199;SDS011;8207;52.494;4.654;2023-03-29T10:40:00;25.57;;;15.90;;
16199;SDS011;8207;52.494;4.654;2023-03-29T10:42:27;23.20;;;13.80;;
16199;SDS011;8207;52.494;4.654;2023-03-29T10:44:55;20.10;;;13.47;;
16199;SDS011;8207;52.494;4.654;2023-03-29T10:47:23;19.63;;;12.60;;
16199;SDS011;8207;52.494;4.654;2023-03-29T10:49:51;15.90;;;10.90;;
16199;SDS011;8207;52.494;4.654;2023-03-29T10:52:21;18.13;;;10.87;;
16199;SDS011;8207;52.494;4.654;2023-03-29T10:54:48;17.23;;;11.90;;
16199;SDS011;8207;52.494;4.654;2023-03-29T10:57:18;16.83;;;12.27;;
16199;SDS011;8207;52.494;4.654;2023-03-29T10:59:54;14.90;;;10.70;;
16199;SDS011;8207;52.494;4.654;2023-03-29T11:02:33;14.00;;;10.57;;
16199;SDS011;8207;52.494;4.654;2023-03-29T11:05:31;15.13;;;10.93;;
16199;SDS011;8207;52.494;4.654;2023-03-29T11:11:02;14.63;;;11.10;;
16199;SDS011;8207;52.494;4.654;2023-03-29T11:13:40;20.33;;;12.73;;
16199;SDS011;8207;52.494;4.654;2023-03-29T11:16:16;17.20;;;11.57;;
16199;SDS011;8207;52.494;4.654;2023-03-29T11:18:55;13.80;;;10.53;;
16199;SDS011;8207;52.494;4.654;2023-03-29T11:21:48;14.37;;;10.80;;
16199;SDS011;8207;52.494;4.654;2023-03-29T11:24:27;15.07;;;10.70;;
16199;SDS011;8207;52.494;4.654;2023-03-29T11:27:10;14.53;;;11.27;;
16199;SDS011;8207;52.494;4.654;2023-03-29T11:29:47;16.50;;;12.27;;
16199;SDS011;8207;52.494;4.654;2023-03-29T11:32:24;18.97;;;12.47;;
16199;SDS011;8207;52.494;4.654;2023-03-29T11:35:02;16.47;;;11.77;;
16199;SDS011;8207;52.494;4.654;2023-03-29T11:37:37;17.73;;;13.20;;
16199;SDS011;8207;52.494;4.654;2023-03-29T11:40:22;18.87;;;12.90;;
16199;SDS011;8207;52.494;4.654;2023-03-29T11:43:00;22.50;;;14.47;;
16199;SDS011;8207;52.494;4.654;2023-03-29T11:45:35;20.57;;;13.23;;
16199;SDS011;8207;52.494;4.654;2023-03-29T11:48:05;19.57;;;14.60;;
16199;SDS011;8207;52.494;4.654;2023-03-29T11:50:41;23.07;;;14.13;;
16199;SDS011;8207;52.494;4.654;2023-03-29T11:53:13;16.80;;;12.67;;
16199;SDS011;8207;52.494;4.654;2023-03-29T11:55:48;18.40;;;12.63;;
16199;SDS011;8207;52.494;4.654;2023-03-29T11:58:19;19.13;;;13.07;;
16199;SDS011;8207;52.494;4.654;2023-03-29T12:00:51;19.47;;;12.93;;
16199;SDS011;8207;52.494;4.654;2023-03-29T12:03:25;19.37;;;14.73;;
16199;SDS011;8207;52.494;4.654;2023-03-29T12:06:02;18.43;;;13.57;;
16199;SDS011;8207;52.494;4.654;2023-03-29T12:08:33;18.77;;;14.20;;
16199;SDS011;8207;52.494;4.654;2023-03-29T12:11:07;21.37;;;15.17;;
16199;SDS011;8207;52.494;4.654;2023-03-29T12:13:41;21.97;;;15.80;;
16199;SDS011;8207;52.494;4.654;2023-03-29T12:16:12;24.97;;;15.60;;
16199;SDS011;8207;52.494;4.654;2023-03-29T12:18:43;20.40;;;14.63;;
16199;SDS011;8207;52.494;4.654;2023-03-29T12:21:13;17.50;;;13.37;;
16199;SDS011;8207;52.494;4.654;2023-03-29T12:23:44;19.77;;;12.90;;
16199;SDS011;8207;52.494;4.654;2023-03-29T12:26:15;15.67;;;12.27;;
16199;SDS011;8207;52.494;4.654;2023-03-29T12:28:56;15.73;;;10.90;;
16199;SDS011;8207;52.494;4.654;2023-03-29T12:31:35;14.77;;;10.20;;
16199;SDS011;8207;52.494;4.654;2023-03-29T12:34:10;16.67;;;10.10;;
16199;SDS011;8207;52.494;4.654;2023-03-29T12:36:53;15.67;;;10.60;;
16199;SDS011;8207;52.494;4.654;2023-03-29T12:39:38;14.33;;;10.30;;
16199;SDS011;8207;52.494;4.654;2023-03-29T12:42:11;16.07;;;10.53;;
16199;SDS011;8207;52.494;4.654;2023-03-29T12:44:40;13.90;;;9.63;;
16199;SDS011;8207;52.494;4.654;2023-03-29T12:47:13;13.33;;;9.07;;
16199;SDS011;8207;52.494;4.654;2023-03-29T12:49:44;12.57;;;9.20;;
16199;SDS011;8207;52.494;4.654;2023-03-29T12:52:16;13.13;;;10.43;;
16199;SDS011;8207;52.494;4.654;2023-03-29T12:54:54;14.03;;;10.80;;
16199;SDS011;8207;52.494;4.654;2023-03-29T12:57:37;16.48;;;10.48;;
16199;SDS011;8207;52.494;4.654;2023-03-29T13:00:10;13.57;;;10.43;;
16199;SDS011;8207;52.494;4.654;2023-03-29T13:02:45;15.77;;;11.00;;
16199;SDS011;8207;52.494;4.654;2023-03-29T13:05:30;15.10;;;10.10;;
16199;SDS011;8207;52.494;4.654;2023-03-29T13:08:09;14.63;;;10.50;;
16199;SDS011;8207;52.494;4.654;2023-03-29T13:10:49;15.97;;;10.83;;
16199;SDS011;8207;52.494;4.654;2023-03-29T13:13:20;17.30;;;11.20;;
16199;SDS011;8207;52.494;4.654;2023-03-29T13:15:52;17.97;;;11.63;;
16199;SDS011;8207;52.494;4.654;2023-03-29T13:18:31;18.60;;;13.93;;
16199;SDS011;8207;52.494;4.654;2023-03-29T13:21:10;16.67;;;12.27;;
16199;SDS011;8207;52.494;4.654;2023-03-29T13:23:48;16.73;;;11.07;;
16199;SDS011;8207;52.494;4.654;2023-03-29T13:26:32;13.17;;;10.57;;
16199;SDS011;8207;52.494;4.654;2023-03-29T13:29:28;15.33;;;10.20;;
16199;SDS011;8207;52.494;4.654;2023-03-29T13:32:14;13.80;;;9.20;;
16199;SDS011;8207;52.494;4.654;2023-03-29T13:34:56;13.33;;;9.03;;
16199;SDS011;8207;52.494;4.654;2023-03-29T13:37:34;18.07;;;9.30;;
16199;SDS011;8207;52.494;4.654;2023-03-29T13:42:59;12.53;;;8.60;;
16199;SDS011;8207;52.494;4.654;2023-03-29T13:45:35;15.10;;;8.83;;
16199;SDS011;8207;52.494;4.654;2023-03-29T13:48:03;10.85;;;8.52;;
16199;SDS011;8207;52.494;4.654;2023-03-29T13:50:51;13.03;;;8.63;;
16199;SDS011;8207;52.494;4.654;2023-03-29T13:53:21;11.77;;;8.60;;
16199;SDS011;8207;52.494;4.654;2023-03-29T13:55:53;14.33;;;9.60;;
16199;SDS011;8207;52.494;4.654;2023-03-29T13:58:25;16.13;;;10.05;;
16199;SDS011;8207;52.494;4.654;2023-03-29T14:01:01;12.67;;;9.97;;
16199;SDS011;8207;52.494;4.654;2023-03-29T14:03:39;16.17;;;10.75;;
16199;SDS011;8207;52.494;4.654;2023-03-29T14:06:10;17.40;;;10.23;;
16199;SDS011;8207;52.494;4.654;2023-03-29T14:08:39;12.48;;;8.95;;
16199;SDS011;8207;52.494;4.654;2023-03-29T14:11:11;50.67;;;14.63;;
16199;SDS011;8207;52.494;4.654;2023-03-29T14:13:47;18.43;;;10.93;;
16199;SDS011;8207;52.494;4.654;2023-03-29T14:16:17;12.97;;;10.50;;
16199;SDS011;8207;52.494;4.654;2023-03-29T14:18:45;19.63;;;11.13;;
16199;SDS011;8207;52.494;4.654;2023-03-29T14:21:15;12.13;;;8.37;;
16199;SDS011;8207;52.494;4.654;2023-03-29T14:23:44;11.63;;;9.00;;
16199;SDS011;8207;52.494;4.654;2023-03-29T14:26:15;15.10;;;10.00;;
16199;SDS011;8207;52.494;4.654;2023-03-29T14:28:44;12.65;;;8.98;;
16199;SDS011;8207;52.494;4.654;2023-03-29T14:31:19;15.40;;;10.27;;
16199;SDS011;8207;52.494;4.654;2023-03-29T14:34:36;11.13;;;8.27;;
16199;SDS011;8207;52.494;4.654;2023-03-29T15:12:57;12.40;;;9.57;;
16199;SDS011;8207;52.494;4.654;2023-03-29T15:15:26;12.57;;;8.77;;
16199;SDS011;8207;52.494;4.654;2023-03-29T15:17:53;13.90;;;9.80;;
16199;SDS011;8207;52.494;4.654;2023-03-29T15:20:23;13.77;;;9.53;;
16199;SDS011;8207;52.494;4.654;2023-03-29T15:22:53;13.27;;;9.77;;
16199;SDS011;8207;52.494;4.654;2023-03-29T15:25:25;15.70;;;10.30;;
16199;SDS011;8207;52.494;4.654;2023-03-29T15:27:54;16.50;;;10.70;;
16199;SDS011;8207;52.494;4.654;2023-03-29T15:30:28;13.23;;;9.97;;
16199;SDS011;8207;52.494;4.654;2023-03-29T15:33:11;13.00;;;9.57;;
16199;SDS011;8207;52.494;4.654;2023-03-29T15:35:46;15.20;;;9.80;;
16199;SDS011;8207;52.494;4.654;2023-03-29T15:38:15;13.27;;;10.40;;
16199;SDS011;8207;52.494;4.654;2023-03-29T15:40:42;14.93;;;10.73;;
16199;SDS011;8207;52.494;4.654;2023-03-29T15:43:11;12.60;;;10.20;;
16199;SDS011;8207;52.494;4.654;2023-03-29T15:45:38;15.13;;;9.87;;
16199;SDS011;8207;52.494;4.654;2023-03-29T15:48:09;13.40;;;10.20;;
16199;SDS011;8207;52.494;4.654;2023-03-29T15:50:41;14.70;;;10.77;;
16199;SDS011;8207;52.494;4.654;2023-03-29T15:53:09;13.47;;;12.07;;
16199;SDS011;8207;52.494;4.654;2023-03-29T15:55:37;15.87;;;12.20;;
16199;SDS011;8207;52.494;4.654;2023-03-29T15:58:07;14.83;;;12.30;;